Time;durP1;ratioP1;P1;durP2;ratioP2;P2;SDS_P1;SDS_P2;PMS_P1;PMS_P2;Temp;Humidity;BMP_temperature;BMP_pressure;BME280_temperature;BME280_humidity;BME280_pressure;Samples;Min_cycle;Max_cycle;Signal;HPM_P1;HPM_P2
2021/10/17 00:02:14;;;;;;;3.25;1.80;;;;;;;-140.79;100.00;63287.88;5404339;22;20069;-64
2021/10/17 00:04:40;;;;;;;3.17;1.80;;;;;;;-140.79;100.00;63287.88;5003524;28;20058;-63
2021/10/17 00:07:09;;;;;;;3.10;2.00;;;;;;;-140.79;100.00;63287.88;5005177;28;20025;-62
2021/10/17 00:09:34;;;;;;;2.63;1.70;;;;;;;-140.79;100.00;63287.88;5005027;28;20554;-62
2021/10/17 00:12:00;;;;;;;3.60;2.10;;;;;;;-140.79;100.00;63287.88;5003780;28;20041;-62
2021/10/17 00:14:25;;;;;;;2.42;1.70;;;;;;;-140.79;100.00;63287.88;5020284;28;20083;-62
2021/10/17 00:16:51;;;;;;;2.53;1.90;;;;;;;-140.79;100.00;63287.88;5019430;28;20022;-63
2021/10/17 00:19:16;;;;;;;3.17;1.88;;;;;;;-140.79;100.00;63287.88;5005036;28;20045;-62
2021/10/17 00:21:41;;;;;;;2.90;2.00;;;;;;;-140.79;100.00;63287.88;5005498;28;20451;-62
2021/10/17 00:24:07;;;;;;;3.90;2.03;;;;;;;-140.79;100.00;63287.88;5004996;28;20435;-62
2021/10/17 00:26:33;;;;;;;2.35;1.63;;;;;;;-140.79;100.00;63287.88;5005081;28;20029;-62
2021/10/17 00:28:58;;;;;;;2.53;1.58;;;;;;;-140.79;100.00;63287.88;5004634;28;20123;-62
2021/10/17 00:31:24;;;;;;;2.60;1.67;;;;;;;-140.79;100.00;63287.88;5004838;28;20109;-62
2021/10/17 00:33:49;;;;;;;3.00;1.90;;;;;;;-140.79;100.00;63287.88;5004928;28;20033;-62
2021/10/17 00:36:18;;;;;;;2.70;1.80;;;;;;;-140.79;100.00;63287.88;5004989;28;20025;-63
2021/10/17 00:38:44;;;;;;;2.70;1.90;;;;;;;-140.79;100.00;63287.88;5003238;28;20530;-62
2021/10/17 00:41:09;;;;;;;3.17;1.90;;;;;;;-140.79;100.00;63287.88;5020026;28;20033;-62
2021/10/17 00:43:35;;;;;;;2.40;1.95;;;;;;;-140.79;100.00;63287.88;5005088;28;20045;-62
2021/10/17 00:46:00;;;;;;;3.03;1.83;;;;;;;-140.79;100.00;63287.88;5004639;28;20061;-62
2021/10/17 00:48:25;;;;;;;2.58;1.90;;;;;;;-140.79;100.00;63287.88;5004553;28;20431;-62
2021/10/17 00:50:51;;;;;;;2.30;1.80;;;;;;;-140.79;100.00;63287.88;5020006;28;20643;-62
2021/10/17 00:53:20;;;;;;;2.47;1.90;;;;;;;-140.79;100.00;63287.88;5004798;28;20470;-62
2021/10/17 00:55:47;;;;;;;2.90;1.88;;;;;;;-140.79;100.00;63287.88;5004769;28;20139;-62
2021/10/17 00:58:15;;;;;;;2.80;2.00;;;;;;;-140.79;100.00;63287.88;5003254;28;20026;-62
2021/10/17 01:00:41;;;;;;;2.38;1.77;;;;;;;-140.79;100.00;63287.88;5004584;28;20130;-62
2021/10/17 01:03:06;;;;;;;3.30;1.90;;;;;;;-140.79;100.00;63287.88;5004089;28;20093;-62
2021/10/17 01:05:31;;;;;;;3.22;2.13;;;;;;;-140.79;100.00;63287.88;5004699;28;20030;-62
2021/10/17 01:07:57;;;;;;;2.97;1.80;;;;;;;-140.79;100.00;63287.88;5004624;28;20278;-62
2021/10/17 01:10:22;;;;;;;2.60;1.73;;;;;;;-140.79;100.00;63287.88;5004504;28;20678;-63
2021/10/17 01:12:48;;;;;;;2.63;1.83;;;;;;;-140.79;100.00;63287.88;5004537;28;20018;-62
2021/10/17 01:15:13;;;;;;;2.70;1.85;;;;;;;-140.79;100.00;63287.88;5004788;28;20022;-62
2021/10/17 01:17:39;;;;;;;3.00;1.90;;;;;;;-140.79;100.00;63287.88;5004369;28;20755;-62
2021/10/17 01:20:08;;;;;;;2.50;1.85;;;;;;;-140.79;100.00;63287.88;5004264;28;20029;-62
2021/10/17 01:22:34;;;;;;;2.53;1.80;;;;;;;-140.79;100.00;63287.88;5002999;28;20029;-62
2021/10/17 01:24:59;;;;;;;2.40;1.77;;;;;;;-140.79;100.00;63287.88;5004470;28;20034;-62
2021/10/17 01:27:25;;;;;;;2.58;1.83;;;;;;;-140.79;100.00;63287.88;5019459;28;20441;-62
2021/10/17 01:29:50;;;;;;;2.63;1.88;;;;;;;-140.79;100.00;63287.88;5007674;28;20025;-63
2021/10/17 01:32:16;;;;;;;2.92;2.03;;;;;;;-140.79;100.00;63287.88;5007791;28;20079;-62
2021/10/17 01:34:41;;;;;;;2.75;2.00;;;;;;;-140.79;100.00;63287.88;5008263;28;20514;-63
2021/10/17 01:37:07;;;;;;;2.50;1.90;;;;;;;-140.79;100.00;63287.88;5006325;28;20033;-62
2021/10/17 01:39:32;;;;;;;3.03;2.00;;;;;;;-140.79;100.00;63287.88;5007568;28;20682;-62
2021/10/17 01:41:58;;;;;;;2.75;1.90;;;;;;;-140.79;100.00;63287.88;5006511;28;20041;-62
2021/10/17 01:44:31;;;;;;;3.33;2.13;;;;;;;-140.79;100.00;63287.88;5007870;28;20384;-62
2021/10/17 01:46:57;;;;;;;3.03;1.95;;;;;;;-140.79;100.00;63287.88;5007493;28;20575;-62
2021/10/17 01:49:22;;;;;;;2.83;1.90;;;;;;;-140.79;100.00;63287.88;5006086;28;20034;-63
2021/10/17 01:51:48;;;;;;;2.70;1.88;;;;;;;-140.79;100.00;63287.88;5007362;28;20030;-63
2021/10/17 01:54:13;;;;;;;2.35;1.75;;;;;;;-140.79;100.00;63287.88;5022950;28;20021;-62
2021/10/17 01:56:39;;;;;;;2.90;1.98;;;;;;;-140.79;100.00;63287.88;5022665;28;20074;-63
2021/10/17 01:59:04;;;;;;;3.20;1.90;;;;;;;-140.79;100.00;63287.88;5022363;28;20583;-61
2021/10/17 02:01:29;;;;;;;3.15;1.90;;;;;;;-140.79;100.00;63287.88;5007568;28;20010;-63
2021/10/17 02:03:55;;;;;;;3.20;1.95;;;;;;;-140.79;100.00;63287.88;5006194;28;20054;-62
2021/10/17 02:06:21;;;;;;;3.50;2.28;;;;;;;-140.79;100.00;63287.88;4990004;28;20193;-62
2021/10/17 02:08:46;;;;;;;3.35;2.00;;;;;;;-140.79;100.00;63287.88;5021944;28;20025;-62
2021/10/17 02:11:12;;;;;;;3.50;2.13;;;;;;;-140.79;100.00;63287.88;5007640;28;20022;-62
2021/10/17 02:13:38;;;;;;;3.63;2.10;;;;;;;-140.79;100.00;63287.88;5000366;28;20034;-62
2021/10/17 02:16:04;;;;;;;2.80;2.00;;;;;;;-140.79;100.00;63287.88;4987823;28;20047;-62
2021/10/17 02:18:30;;;;;;;3.17;2.17;;;;;;;-140.79;100.00;63287.88;4987349;28;20034;-62
2021/10/17 02:20:55;;;;;;;3.25;2.10;;;;;;;-140.79;100.00;63287.88;4987676;28;20037;-62
2021/10/17 02:23:21;;;;;;;2.85;2.15;;;;;;;-140.79;100.00;63287.88;4987544;28;20100;-62
2021/10/17 02:25:46;;;;;;;3.25;2.20;;;;;;;-140.79;100.00;63287.88;4987552;28;20117;-62
2021/10/17 02:28:11;;;;;;;3.03;2.00;;;;;;;-140.79;100.00;63287.88;4987172;28;20073;-62
2021/10/17 02:30:37;;;;;;;3.65;2.13;;;;;;;-140.79;100.00;63287.88;4987251;28;20026;-62
2021/10/17 02:33:02;;;;;;;2.72;2.03;;;;;;;-140.79;100.00;63287.88;4987377;28;20037;-62
2021/10/17 02:35:28;;;;;;;2.55;2.17;;;;;;;-140.79;100.00;63287.88;4987327;28;20034;-62
2021/10/17 02:37:53;;;;;;;2.22;1.40;;;;;;;-140.79;100.00;63287.88;4997150;28;20108;-62
2021/10/17 02:40:19;;;;;;;2.72;1.92;;;;;;;-140.79;100.00;63287.88;5006075;28;20022;-62
2021/10/17 02:42:44;;;;;;;2.83;1.95;;;;;;;-140.79;100.00;63287.88;5005598;28;20026;-62
2021/10/17 02:45:10;;;;;;;2.80;1.98;;;;;;;-140.79;100.00;63287.88;5005336;28;20507;-62
2021/10/17 02:47:35;;;;;;;2.85;2.00;;;;;;;-140.79;100.00;63287.88;5021729;28;20034;-62
2021/10/17 02:50:01;;;;;;;2.85;2.17;;;;;;;-140.79;100.00;63287.88;4997298;28;20030;-62
2021/10/17 02:52:26;;;;;;;2.63;1.92;;;;;;;-140.79;100.00;63287.88;5004586;28;20742;-62
2021/10/17 02:54:51;;;;;;;2.83;2.00;;;;;;;-140.79;100.00;63287.88;5006547;28;20028;-62
2021/10/17 02:57:17;;;;;;;3.08;2.13;;;;;;;-140.79;100.00;63287.88;4988441;28;20034;-62
2021/10/17 02:59:42;;;;;;;2.85;2.03;;;;;;;-140.79;100.00;63287.88;5006543;28;20033;-62
2021/10/17 03:02:08;;;;;;;2.78;1.80;;;;;;;-140.79;100.00;63287.88;5004709;28;20025;-63
2021/10/17 03:04:33;;;;;;;2.75;2.00;;;;;;;-140.79;100.00;63287.88;5006077;28;20121;-62
2021/10/17 03:06:59;;;;;;;2.97;2.10;;;;;;;-140.79;100.00;63287.88;5004555;28;20420;-63
2021/10/17 03:09:24;;;;;;;3.03;2.30;;;;;;;-140.79;100.00;63287.88;5006306;28;20044;-62
2021/10/17 03:11:50;;;;;;;3.10;2.17;;;;;;;-140.79;100.00;63287.88;5004695;28;20081;-61
2021/10/17 03:14:15;;;;;;;2.40;1.70;;;;;;;-140.79;100.00;63287.88;5006340;28;20041;-63
2021/10/17 03:16:45;;;;;;;3.20;2.20;;;;;;;-140.79;100.00;63287.88;5005858;28;20030;-62
2021/10/17 03:19:11;;;;;;;2.88;2.10;;;;;;;-140.79;100.00;63287.88;5006087;28;20053;-62
2021/10/17 03:21:37;;;;;;;2.95;2.08;;;;;;;-140.79;100.00;63287.88;5004604;28;20029;-62
2021/10/17 03:24:03;;;;;;;2.83;2.15;;;;;;;-140.79;100.00;63287.88;5005555;28;20627;-62
2021/10/17 03:26:28;;;;;;;2.70;2.10;;;;;;;-140.79;100.00;63287.88;5005907;28;20034;-62
2021/10/17 03:28:54;;;;;;;2.92;2.30;;;;;;;-140.79;100.00;63287.88;5005216;28;20385;-62
2021/10/17 03:31:19;;;;;;;3.35;2.20;;;;;;;-140.79;100.00;63287.88;5006160;28;20415;-62
2021/10/17 03:33:44;;;;;;;3.60;2.33;;;;;;;-140.79;100.00;63287.88;5006193;28;20550;-63
2021/10/17 03:36:10;;;;;;;2.40;1.90;;;;;;;-140.79;100.00;63287.88;5005027;28;20053;-62
2021/10/17 03:38:36;;;;;;;2.63;2.20;;;;;;;-140.79;100.00;63287.88;5020749;28;20030;-62
2021/10/17 03:41:01;;;;;;;3.55;2.38;;;;;;;-140.79;100.00;63287.88;5005531;28;20030;-62
2021/10/17 03:43:27;;;;;;;2.92;2.00;;;;;;;-140.79;100.00;63287.88;5005520;28;20026;-62
2021/10/17 03:45:52;;;;;;;3.55;2.30;;;;;;;-140.79;100.00;63287.88;5004139;28;20273;-62
2021/10/17 03:48:18;;;;;;;2.97;2.20;;;;;;;-140.79;100.00;63287.88;5005708;28;20034;-62
2021/10/17 03:50:43;;;;;;;2.92;1.92;;;;;;;-140.79;100.00;63287.88;5004884;28;20030;-62
2021/10/17 03:53:09;;;;;;;2.42;1.90;;;;;;;-140.79;100.00;63287.88;5005490;28;20034;-62
2021/10/17 03:55:34;;;;;;;2.42;2.13;;;;;;;-140.79;100.00;63287.88;5005360;28;20484;-62
2021/10/17 03:58:00;;;;;;;2.67;2.10;;;;;;;-140.79;100.00;63287.88;5005000;28;20018;-62
2021/10/17 04:00:26;;;;;;;3.25;2.20;;;;;;;-140.79;100.00;63287.88;5005153;28;20030;-62
2021/10/17 04:02:52;;;;;;;3.35;2.17;;;;;;;-140.79;100.00;63287.88;5005067;28;20060;-62
2021/10/17 04:05:18;;;;;;;2.95;2.13;;;;;;;-140.79;100.00;63287.88;5005251;28;20097;-62
2021/10/17 04:07:45;;;;;;;3.00;2.17;;;;;;;-140.79;100.00;63287.88;5005124;28;20575;-62
2021/10/17 04:10:10;;;;;;;2.75;2.20;;;;;;;-140.79;100.00;63287.88;5005127;28;20060;-62
2021/10/17 04:12:35;;;;;;;2.42;2.03;;;;;;;-140.79;100.00;63287.88;5004823;28;20026;-62
2021/10/17 04:15:01;;;;;;;2.80;2.00;;;;;;;-140.79;100.00;63287.88;5003915;28;20026;-61
2021/10/17 04:17:26;;;;;;;2.92;2.40;;;;;;;-140.79;100.00;63287.88;5004868;28;20494;-62
2021/10/17 04:19:52;;;;;;;3.38;2.42;;;;;;;-140.79;100.00;63287.88;5005164;28;20565;-62
2021/10/17 04:22:18;;;;;;;3.13;2.00;;;;;;;-140.79;100.00;63287.88;5004882;28;20033;-62
2021/10/17 04:24:43;;;;;;;3.00;2.20;;;;;;;-140.79;100.00;63287.88;5005425;28;20034;-62
2021/10/17 04:27:09;;;;;;;2.85;2.00;;;;;;;-140.79;100.00;63287.88;5003321;28;20029;-62
2021/10/17 04:29:37;;;;;;;3.35;2.30;;;;;;;-140.79;100.00;63287.88;5004879;28;20030;-62
2021/10/17 04:32:03;;;;;;;3.05;2.20;;;;;;;-140.79;100.00;63287.88;5003357;28;20121;-62
2021/10/17 04:34:29;;;;;;;3.58;2.35;;;;;;;-140.79;100.00;63287.88;5002877;28;20021;-62
2021/10/17 04:36:55;;;;;;;2.67;2.00;;;;;;;-140.79;100.00;63287.88;5004616;28;20032;-62
2021/10/17 04:39:20;;;;;;;3.25;2.10;;;;;;;-140.79;100.00;63287.88;5003129;28;20478;-62
2021/10/17 04:41:46;;;;;;;3.42;2.60;;;;;;;-140.79;100.00;63287.88;5004615;28;20034;-62
2021/10/17 04:44:11;;;;;;;3.45;2.47;;;;;;;-140.79;100.00;63287.88;5003923;28;20029;-61
2021/10/17 04:46:36;;;;;;;2.95;2.03;;;;;;;-140.79;100.00;63287.88;4985925;28;20041;-61
2021/10/17 04:49:02;;;;;;;3.28;2.10;;;;;;;-140.79;100.00;63287.88;5002489;28;20080;-61
2021/10/17 04:51:27;;;;;;;2.53;1.90;;;;;;;-140.79;100.00;63287.88;4969808;28;20033;-61
2021/10/17 04:53:53;;;;;;;2.67;2.33;;;;;;;-140.79;100.00;63287.88;5003980;28;20083;-61
2021/10/17 04:56:18;;;;;;;2.83;1.90;;;;;;;-140.79;100.00;63287.88;5003858;28;20465;-62
2021/10/17 04:58:44;;;;;;;3.20;2.30;;;;;;;-140.79;100.00;63287.88;5003554;28;20026;-61
2021/10/17 05:01:09;;;;;;;3.13;2.20;;;;;;;-140.79;100.00;63287.88;5003731;28;20091;-61
2021/10/17 05:03:35;;;;;;;3.00;1.95;;;;;;;-140.79;100.00;63287.88;5005863;28;20646;-61
2021/10/17 05:06:00;;;;;;;3.35;1.92;;;;;;;-140.79;100.00;63287.88;5006461;28;20503;-62
2021/10/17 05:08:26;;;;;;;2.55;1.90;;;;;;;-140.79;100.00;63287.88;5006993;28;20026;-62
2021/10/17 05:10:51;;;;;;;2.97;1.95;;;;;;;-140.79;100.00;63287.88;5006082;28;20033;-61
2021/10/17 05:13:17;;;;;;;2.75;1.90;;;;;;;-140.79;100.00;63287.88;4989131;28;20034;-62
2021/10/17 05:15:42;;;;;;;2.92;1.83;;;;;;;-140.79;100.00;63287.88;4988745;28;20053;-63
2021/10/17 05:18:08;;;;;;;2.65;2.00;;;;;;;-140.79;100.00;63287.88;5003484;28;20041;-64
2021/10/17 05:20:34;;;;;;;2.90;2.10;;;;;;;-140.79;100.00;63287.88;4988754;28;20125;-64
2021/10/17 05:22:59;;;;;;;2.65;2.10;;;;;;;-140.79;100.00;63287.88;4991354;28;20029;-63
2021/10/17 05:25:25;;;;;;;3.78;2.40;;;;;;;-140.79;100.00;63287.88;5007916;28;20025;-63
2021/10/17 05:27:50;;;;;;;3.80;2.40;;;;;;;-140.79;100.00;63287.88;5007589;28;20079;-63
2021/10/17 05:30:16;;;;;;;2.70;2.15;;;;;;;-140.79;100.00;63287.88;5006823;28;20041;-62
2021/10/17 05:32:41;;;;;;;2.88;2.05;;;;;;;-140.79;100.00;63287.88;5007785;28;20033;-63
2021/10/17 05:35:07;;;;;;;3.70;2.22;;;;;;;-140.79;100.00;63287.88;5007757;28;20221;-62
2021/10/17 05:37:32;;;;;;;3.33;2.30;;;;;;;-140.79;100.00;63287.88;5008104;28;20064;-64
2021/10/17 05:39:58;;;;;;;2.67;2.20;;;;;;;-140.79;100.00;63287.88;5007802;28;20060;-63
2021/10/17 05:42:23;;;;;;;3.47;2.25;;;;;;;-140.79;100.00;63287.88;5006286;28;20450;-63
2021/10/17 05:44:49;;;;;;;3.33;2.10;;;;;;;-140.79;100.00;63287.88;5006135;28;20084;-64
2021/10/17 05:47:14;;;;;;;2.70;1.83;;;;;;;-140.79;100.00;63287.88;5007669;28;20030;-64
2021/10/17 05:49:40;;;;;;;2.90;2.20;;;;;;;-140.79;100.00;63287.88;5007666;28;20793;-62
2021/10/17 05:52:05;;;;;;;2.63;2.10;;;;;;;-140.79;100.00;63287.88;5007693;28;20030;-62
2021/10/17 05:54:31;;;;;;;3.22;2.25;;;;;;;-140.79;100.00;63287.88;5007708;28;20504;-61
2021/10/17 05:56:57;;;;;;;3.65;2.40;;;;;;;-140.79;100.00;63287.88;5006074;28;20032;-62
2021/10/17 05:59:32;;;;;;;3.08;2.20;;;;;;;-140.79;100.00;63287.88;5006977;28;20522;-62
2021/10/17 06:01:58;;;;;;;3.50;2.50;;;;;;;-140.79;100.00;63287.88;4986107;28;20095;-62
2021/10/17 06:04:23;;;;;;;3.28;2.17;;;;;;;-140.79;100.00;63287.88;4986537;28;20038;-62
2021/10/17 06:06:49;;;;;;;3.72;2.40;;;;;;;-140.79;100.00;63287.88;4986598;28;20792;-62
2021/10/17 06:09:15;;;;;;;4.18;3.03;;;;;;;-140.79;100.00;63287.88;5005577;28;20411;-62
2021/10/17 06:11:40;;;;;;;4.60;3.10;;;;;;;-140.79;100.00;63287.88;5005457;28;20332;-62
2021/10/17 06:14:08;;;;;;;3.17;2.30;;;;;;;-140.79;100.00;63287.88;5005132;28;20108;-61
2021/10/17 06:16:34;;;;;;;3.90;2.70;;;;;;;-140.79;100.00;63287.88;5006983;28;20034;-62
2021/10/17 06:18:59;;;;;;;3.60;2.70;;;;;;;-140.79;100.00;63287.88;5006498;28;20036;-63
2021/10/17 06:21:25;;;;;;;3.53;2.50;;;;;;;-140.79;100.00;63287.88;4989840;28;20120;-63
2021/10/17 06:23:51;;;;;;;3.30;2.35;;;;;;;-140.79;100.00;63287.88;4993123;28;20704;-64
2021/10/17 06:26:16;;;;;;;4.65;2.45;;;;;;;-140.79;100.00;63287.88;4991471;28;20481;-63
2021/10/17 06:28:41;;;;;;;5.72;3.70;;;;;;;-140.79;100.00;63287.88;4997852;28;20037;-64
2021/10/17 06:31:07;;;;;;;11.52;6.97;;;;;;;-140.79;100.00;63287.88;5005468;28;20460;-63
2021/10/17 06:33:32;;;;;;;13.45;8.10;;;;;;;-140.79;100.00;63287.88;4996066;28;20451;-65
2021/10/17 06:35:58;;;;;;;14.77;9.80;;;;;;;-140.79;100.00;63287.88;5005944;28;20022;-64
2021/10/17 06:38:23;;;;;;;15.50;9.88;;;;;;;-140.79;100.00;63287.88;4984702;28;20034;-65
2021/10/17 06:40:49;;;;;;;15.55;9.48;;;;;;;-140.79;100.00;63287.88;5003553;28;20072;-64
2021/10/17 06:43:14;;;;;;;15.05;9.23;;;;;;;-140.79;100.00;63287.88;5002564;28;20092;-65
2021/10/17 06:45:39;;;;;;;15.77;9.45;;;;;;;-140.79;100.00;63287.88;4996630;28;20022;-63
2021/10/17 06:48:05;;;;;;;16.90;9.88;;;;;;;-140.79;100.00;63287.88;5006000;28;20022;-64
2021/10/17 06:50:30;;;;;;;15.18;8.93;;;;;;;-140.79;100.00;63287.88;5006367;28;20408;-67
2021/10/17 06:52:57;;;;;;;15.63;9.50;;;;;;;-140.79;100.00;63287.88;4992220;28;20028;-67
2021/10/17 06:55:22;;;;;;;13.52;9.20;;;;;;;-140.79;100.00;63287.88;5005916;28;20032;-65
2021/10/17 06:57:47;;;;;;;14.88;8.50;;;;;;;-140.79;100.00;63287.88;5004242;28;20025;-63
2021/10/17 07:00:14;;;;;;;13.80;8.50;;;;;;;-140.79;100.00;63287.88;5005563;28;20013;-65
2021/10/17 07:02:39;;;;;;;12.52;8.63;;;;;;;-140.79;100.00;63287.88;5005856;28;20050;-67
2021/10/17 07:05:05;;;;;;;13.73;8.15;;;;;;;-140.79;100.00;63287.88;4990392;28;20034;-63
2021/10/17 07:07:30;;;;;;;12.82;7.85;;;;;;;-140.79;100.00;63287.88;4987950;28;20064;-64
2021/10/17 07:09:56;;;;;;;13.07;7.72;;;;;;;-140.79;100.00;63287.88;5004979;28;20029;-63
2021/10/17 07:12:21;;;;;;;11.50;7.57;;;;;;;-140.79;100.00;63287.88;4990975;28;20037;-64
2021/10/17 07:14:47;;;;;;;10.43;7.53;;;;;;;-140.79;100.00;63287.88;4994491;28;20032;-64
2021/10/17 07:17:12;;;;;;;12.60;7.68;;;;;;;-140.79;100.00;63287.88;4991086;28;20026;-63
2021/10/17 07:19:38;;;;;;;12.93;7.88;;;;;;;-140.79;100.00;63287.88;5001411;28;20034;-63
2021/10/17 07:22:03;;;;;;;11.45;7.22;;;;;;;-140.79;100.00;63287.88;5004899;28;20028;-64
2021/10/17 07:24:29;;;;;;;12.98;7.60;;;;;;;-140.79;100.00;63287.88;5007744;28;20021;-64
2021/10/17 07:26:54;;;;;;;11.32;7.38;;;;;;;-140.79;100.00;63287.88;5004011;28;20085;-64
2021/10/17 07:29:20;;;;;;;11.15;7.35;;;;;;;-140.79;100.00;63287.88;5004879;28;20030;-62
2021/10/17 07:31:45;;;;;;;9.82;7.28;;;;;;;-140.79;100.00;63287.88;5003052;28;20037;-63
2021/10/17 07:34:10;;;;;;;11.60;7.68;;;;;;;-140.79;100.00;63287.88;5004312;28;20032;-62
2021/10/17 07:36:36;;;;;;;10.80;7.22;;;;;;;-140.79;100.00;63287.88;5017197;28;20006;-63
2021/10/17 07:39:02;;;;;;;12.93;7.68;;;;;;;-140.79;100.00;63287.88;5006161;28;20041;-64
2021/10/17 07:41:27;;;;;;;12.13;7.55;;;;;;;-140.79;100.00;63287.88;5007655;28;20026;-64
2021/10/17 07:43:53;;;;;;;9.50;7.07;;;;;;;-140.79;100.00;63287.88;5005010;28;20041;-64
2021/10/17 07:46:18;;;;;;;11.65;8.25;;;;;;;-140.79;100.00;63287.88;5003118;28;20034;-64
2021/10/17 07:48:44;;;;;;;9.82;7.15;;;;;;;-140.79;100.00;63287.88;5004397;28;20038;-65
2021/10/17 07:51:09;;;;;;;9.60;6.85;;;;;;;-140.79;100.00;63287.88;5004557;28;20025;-67
2021/10/17 07:53:35;;;;;;;10.68;7.30;;;;;;;-140.79;100.00;63287.88;5004145;28;20045;-68
2021/10/17 07:56:00;;;;;;;9.93;6.82;;;;;;;-140.79;100.00;63287.88;5004042;28;20029;-66
2021/10/17 07:58:26;;;;;;;9.32;6.05;;;;;;;-140.79;100.00;63287.88;5003960;28;20017;-65
2021/10/17 08:00:52;;;;;;;10.07;6.25;;;;;;;-140.79;100.00;63287.88;5004443;28;20106;-65
2021/10/17 08:03:17;;;;;;;9.90;6.70;;;;;;;-140.79;100.00;63287.88;5004218;28;20065;-67
2021/10/17 08:05:43;;;;;;;9.88;7.03;;;;;;;-140.79;100.00;63287.88;5003963;28;20426;-67
2021/10/17 08:08:08;;;;;;;9.73;6.43;;;;;;;-140.79;100.00;63287.88;5003684;28;20463;-66
2021/10/17 08:10:34;;;;;;;7.97;6.07;;;;;;;-140.79;100.00;63287.88;5006413;28;20480;-65
2021/10/17 08:13:01;;;;;;;8.88;6.45;;;;;;;-140.79;100.00;63287.88;5019264;28;20401;-67
2021/10/17 08:15:27;;;;;;;9.43;6.45;;;;;;;-140.79;100.00;63287.88;5002900;28;20038;-67
2021/10/17 08:17:54;;;;;;;8.25;5.78;;;;;;;-140.79;100.00;63287.88;5003304;28;20026;-67
2021/10/17 08:20:19;;;;;;;8.88;6.63;;;;;;;-140.79;100.00;63287.88;5003768;28;20066;-67
2021/10/17 08:22:45;;;;;;;9.68;6.85;;;;;;;-140.79;100.00;63287.88;5004089;28;20030;-67
2021/10/17 08:25:10;;;;;;;9.15;6.28;;;;;;;-140.79;100.00;63287.88;5003858;28;20025;-67
2021/10/17 08:27:38;;;;;;;7.55;5.93;;;;;;;-140.79;100.00;63287.88;5004762;28;20037;-67
2021/10/17 08:30:04;;;;;;;7.80;6.03;;;;;;;-140.79;100.00;63287.88;5002114;28;20033;-69
2021/10/17 08:32:30;;;;;;;8.32;5.90;;;;;;;-140.79;100.00;63287.88;5003831;28;20029;-66
2021/10/17 08:34:55;;;;;;;7.82;5.78;;;;;;;-140.79;100.00;63287.88;5003524;28;20045;-65
2021/10/17 08:37:21;;;;;;;8.48;5.93;;;;;;;-140.79;100.00;63287.88;5002914;28;20038;-68
2021/10/17 08:39:46;;;;;;;8.73;5.70;;;;;;;-140.79;100.00;63287.88;5004050;28;20025;-65
2021/10/17 08:42:12;;;;;;;8.45;5.57;;;;;;;-140.79;100.00;63287.88;5002290;28;20036;-67
2021/10/17 08:44:38;;;;;;;8.57;5.72;;;;;;;-140.79;100.00;63287.88;5003837;28;20034;-68
2021/10/17 08:47:04;;;;;;;7.05;5.38;;;;;;;-140.79;100.00;63287.88;5001718;28;20033;-65
2021/10/17 08:49:29;;;;;;;7.13;5.47;;;;;;;-140.79;100.00;63287.88;5003570;28;20100;-66
2021/10/17 08:51:55;;;;;;;7.93;5.05;;;;;;;-140.79;100.00;63287.88;5003181;28;20038;-65
2021/10/17 08:54:20;;;;;;;9.05;5.25;;;;;;;-140.79;100.00;63287.88;5003698;28;20025;-65
2021/10/17 08:56:46;;;;;;;7.72;5.30;;;;;;;-140.79;100.00;63287.88;5003175;28;20139;-66
2021/10/17 08:59:11;;;;;;;8.27;5.80;;;;;;;-140.79;100.00;63287.88;5003606;28;20375;-66
2021/10/17 09:01:37;;;;;;;7.38;5.25;;;;;;;-140.79;100.00;63287.88;5002617;28;20033;-69
2021/10/17 09:04:03;;;;;;;6.88;5.32;;;;;;;-140.79;100.00;63287.88;5003125;28;20135;-68
2021/10/17 09:06:34;;;;;;;7.55;5.40;;;;;;;-140.79;100.00;63287.88;5002294;28;20029;-67
2021/10/17 09:09:18;;;;;;;7.90;5.68;;;;;;;-140.79;100.00;63287.88;5002257;28;20038;-65
2021/10/17 09:11:51;;;;;;;7.60;5.78;;;;;;;-140.79;100.00;63287.88;5002609;28;20083;-64
2021/10/17 09:14:23;;;;;;;7.30;5.40;;;;;;;-140.79;100.00;63287.88;5008399;28;20081;-68
2021/10/17 09:16:52;;;;;;;7.70;5.35;;;;;;;-140.79;100.00;63287.88;4994839;28;20113;-66
2021/10/17 09:19:25;;;;;;;7.53;5.28;;;;;;;-140.79;100.00;63287.88;5002465;28;20080;-67
2021/10/17 09:21:56;;;;;;;7.15;5.28;;;;;;;-140.79;100.00;63287.88;5003772;28;20037;-68
2021/10/17 09:24:28;;;;;;;7.72;5.10;;;;;;;-140.79;100.00;63287.88;5003830;28;20117;-66
2021/10/17 09:27:13;;;;;;;6.43;4.70;;;;;;;-140.79;100.00;63287.88;5007365;28;20022;-69
2021/10/17 09:29:40;;;;;;;6.88;4.90;;;;;;;-140.79;100.00;63287.88;5001407;28;20076;-67
2021/10/17 09:32:15;;;;;;;7.32;4.95;;;;;;;-140.79;100.00;63287.88;5018603;28;20519;-66
2021/10/17 09:34:40;;;;;;;6.90;5.00;;;;;;;-140.79;100.00;63287.88;4998896;28;20022;-68
2021/10/17 09:37:12;;;;;;;7.80;5.10;;;;;;;-140.79;100.00;63287.88;4998475;28;20631;-65
2021/10/17 09:39:43;;;;;;;7.32;5.05;;;;;;;-140.79;100.00;63287.88;5006206;28;20488;-66
2021/10/17 09:42:09;;;;;;;7.55;5.07;;;;;;;-140.79;100.00;63287.88;5003165;28;20072;-64
2021/10/17 09:44:38;;;;;;;6.70;4.65;;;;;;;-140.79;100.00;63287.88;5017936;28;20026;-64
2021/10/17 09:47:04;;;;;;;7.28;5.20;;;;;;;-140.79;100.00;63287.88;5000410;28;20405;-67
2021/10/17 09:49:30;;;;;;;6.90;5.00;;;;;;;-140.79;100.00;63287.88;4994483;28;20029;-67
2021/10/17 09:52:16;;;;;;;6.72;5.22;;;;;;;-140.79;100.00;63287.88;5007142;28;20030;-68
2021/10/17 09:54:49;;;;;;;6.80;4.80;;;;;;;-140.79;100.00;63287.88;5006304;28;20030;-63
2021/10/17 09:57:14;;;;;;;6.85;5.07;;;;;;;-140.79;100.00;63287.88;5018116;28;20037;-65
2021/10/17 09:59:40;;;;;;;6.07;4.70;;;;;;;-140.79;100.00;63287.88;5015780;28;20492;-64
2021/10/17 10:02:10;;;;;;;6.45;5.03;;;;;;;-140.79;100.00;63287.88;5005822;28;20675;-63
2021/10/17 10:04:38;;;;;;;6.38;5.15;;;;;;;-140.79;100.00;63287.88;4993194;28;20046;-63
2021/10/17 10:07:04;;;;;;;7.28;5.00;;;;;;;-140.79;100.00;63287.88;4984745;28;20045;-64
2021/10/17 10:09:30;;;;;;;5.82;4.60;;;;;;;-140.79;100.00;63287.88;4989538;28;20516;-64
2021/10/17 10:11:56;;;;;;;6.80;4.95;;;;;;;-140.79;100.00;63287.88;5003455;28;20736;-64
2021/10/17 10:14:21;;;;;;;6.35;4.88;;;;;;;-140.79;100.00;63287.88;5013086;28;20029;-63
2021/10/17 10:16:51;;;;;;;7.28;4.80;;;;;;;-140.79;100.00;63287.88;5005859;28;20105;-62
2021/10/17 10:19:16;;;;;;;;;;;;;;;-140.79;100.00;63287.88;4989997;28;20032;-63
2021/10/17 10:21:42;;;;;;;7.32;4.80;;;;;;;-140.79;100.00;63287.88;5006327;28;19913;-65
2021/10/17 10:24:09;;;;;;;6.95;4.82;;;;;;;-140.79;100.00;63287.88;4992951;28;20030;-63
2021/10/17 10:26:35;;;;;;;6.47;4.43;;;;;;;-140.79;100.00;63287.88;4991877;28;20080;-62
2021/10/17 10:29:01;;;;;;;6.88;4.63;;;;;;;-140.79;100.00;63287.88;4990787;28;20111;-70
2021/10/17 10:31:47;;;;;;;6.25;4.72;;;;;;;-140.79;100.00;63287.88;5005003;28;20046;-63
2021/10/17 10:34:22;;;;;;;6.93;4.68;;;;;;;-140.79;100.00;63287.88;4991512;28;20029;-63
2021/10/17 10:36:51;;;;;;;6.15;4.35;;;;;;;-140.79;100.00;63287.88;4987636;28;20014;-63
2021/10/17 10:39:23;;;;;;;6.50;4.82;;;;;;;-140.79;100.00;63287.88;4987023;28;20030;-63
2021/10/17 10:42:01;;;;;;;6.00;4.40;;;;;;;-140.79;100.00;63287.88;5002025;28;20041;-63
2021/10/17 10:44:29;;;;;;;6.47;4.47;;;;;;;-140.79;100.00;63287.88;4988475;28;20038;-63
2021/10/17 10:46:56;;;;;;;6.60;4.40;;;;;;;-140.79;100.00;63287.88;4988277;28;20092;-63
2021/10/17 10:49:47;;;;;;;6.32;4.25;;;;;;;-140.79;100.00;63287.88;4990153;28;20099;-63
2021/10/17 10:52:34;;;;;;;6.25;4.32;;;;;;;-140.79;100.00;63287.88;4993328;28;20040;-62
2021/10/17 10:55:03;;;;;;;5.80;4.32;;;;;;;-140.79;100.00;63287.88;5005978;28;20034;-65
2021/10/17 10:57:29;;;;;;;6.07;4.20;;;;;;;-140.79;100.00;63287.88;5005781;28;20072;-64
2021/10/17 11:00:07;;;;;;;6.32;4.43;;;;;;;-140.79;100.00;63287.88;5004943;28;20506;-65
2021/10/17 11:02:32;;;;;;;6.25;4.40;;;;;;;-140.79;100.00;63287.88;5003904;28;20046;-64
2021/10/17 11:05:21;;;;;;;5.88;4.32;;;;;;;-140.79;100.00;63287.88;5005210;28;20038;-64
2021/10/17 11:07:47;;;;;;;5.22;3.90;;;;;;;-140.79;100.00;63287.88;5004745;28;20044;-64